• Join FlightAware (Why Join?)
  • Login
  • US Flag 
09:57PM EST


 

Airport Tracker/Info


-or-


 

Live Flight TrackerFlight Track Log ✈ JBU56 ✈ 01-Dec-2013 ✈ KIAD - KBOS

Flight Track Log - Related Links

Times and Time Zones

All times are in EST time to prevent confusion due to time zone crossing. See the JBU56 flight status page for this flight to view local times or setup timezone preferences in your user account.

Time Position Orientation Groundspeed Altitude Reporting Facility
EST Latitude Longitude Course Direction KTS MPH feet Rate Location/Type
09:48AM 38.9667 -77.5333 90° East 190 219 2,700  Level Potomac TRACON
09:49AM 39.0167 -77.5500 345° North 207 238 4,800 2,220 Climbing Potomac TRACON
09:50AM 39.0667 -77.5333 15° North 264 304 6,800 2,580 Climbing Potomac TRACON
09:51AM 39.1935 -77.0369 74° East  Level Estimated
09:51AM 39.1500 -77.4500 38° Northeast 308 354 10,000  Level Potomac TRACON
09:52AM 39.1776 -76.9061 99° East  Level FlightAware Approximate
09:53AM 39.2398 -76.8008 76° East  Level Estimated
09:53AM 39.1606 -77.2325 86° East 318 366 10,200  Level Washington Center
09:54AM 39.3020 -76.6954 90° East  Level Estimated
09:54AM 39.1311 -77.1114 107° East 331 381 12,200  Level Washington Center
09:55AM 39.1158 -76.9775 98° East 353 406 15,100 2,580 Climbing Washington Center
09:56AM 39.1236 -76.8358 86° East 374 430 17,500 2,220 Climbing Washington Center
09:57AM 39.1292 -76.6914 87° East 389 448 19,600 2,160 Climbing Washington Center
09:58AM 39.1369 -76.5389 86° East 407 468 21,900 1,620 Climbing Washington Center
09:59AM 39.1419 -76.4158 87° East 418 481 23,000 540 Climbing Washington Center
10:00AM 39.1492 -76.2314 87° East 423 487 23,000  Level Washington Center
10:01AM 39.1686 -76.0922 80° East 423 487 23,000 420 Level Washington Center
10:02AM 39.1817 -75.9719 82° East 423 487 23,900 1,440 Climbing Washington Center
10:03AM 39.2486 -75.8114 62° Northeast 423 487 26,000 1,800 Climbing Washington Center
10:04AM 39.3342 -75.6989 45° Northeast 421 484 27,500 1,560 Climbing Washington Center
10:05AM 39.4239 -75.5836 45° Northeast 428 493 29,100 1,560 Climbing Washington Center
10:06AM 39.5114 -75.4706 45° Northeast 435 501 30,700 900 Climbing Washington Center
10:07AM 39.5986 -75.3544 46° Northeast 440 506 31,000 60 Climbing Washington Center
10:10AM 39.8239 -75.0361 47° Northeast 478 550 31,000  Level New York Center
10:11AM 39.9078 -74.9058 50° Northeast 472 543 31,000  Level New York Center
10:12AM 39.9889 -74.7833 49° Northeast 465 535 31,000  Level New York Center
10:13AM 40.0747 -74.6528 49° Northeast 465 535 31,000  Level New York Center
10:14AM 40.1581 -74.5242 50° Northeast 465 535 31,000 -60 Level New York Center
10:15AM 40.2456 -74.3931 49° Northeast 471 542 30,900  Descending New York Center
10:16AM 40.3308 -74.2642 49° Northeast 471 542 31,000  Climbing New York Center
10:17AM 40.4158 -74.1322 50° Northeast 471 542 31,000  Level New York Center
10:19AM 40.5825 -73.8789 49° Northeast 477 549 31,000  Level Boston Center
10:20AM 40.6672 -73.7453 50° Northeast 476 548 31,000 -840 Level Boston Center
10:21AM 40.7522 -73.6136 50° Northeast 473 544 29,300 -1,860 Descending Boston Center
10:22AM 40.8339 -73.4844 50° Northeast 461 531 27,300 -1,140 Descending Boston Center
10:23AM 40.9167 -73.3572 49° Northeast 457 526 27,000 -720 Descending Boston Center
10:24AM 41.0003 -73.2322 48° Northeast 453 521 25,900 -1,680 Descending Boston Center
10:25AM 41.0828 -73.1092 48° Northeast 451 519 23,600 -2,340 Descending Boston Center
10:26AM 41.1614 -72.9936 48° Northeast 441 507 21,200 -1,320 Descending Boston Center
10:27AM 41.2453 -72.8444 53° Northeast 425 489 21,000 -120 Descending Boston Center
10:28AM 41.3000 -72.6986 63° Northeast 427 491 21,000  Level Boston Center
10:29AM 41.3531 -72.5561 64° Northeast 428 493 21,000  Level Boston Center
10:30AM 41.4050 -72.4136 64° Northeast 427 491 21,000  Level Boston Center
10:31AM 41.4583 -72.2714 63° Northeast 428 493 21,000  Level Boston Center
10:32AM 41.5094 -72.1278 65° Northeast 428 493 21,000  Level Boston Center
10:33AM 41.5567 -71.9972 64° Northeast 429 494 21,000 -180 Level Boston Center
10:34AM 41.5997 -71.8497 69° East 430 495 20,700 -1,260 Descending Boston Center
10:35AM 41.6506 -71.6817 68° East 427 491 18,500 -2,040 Descending Boston Center
10:36AM 41.6950 -71.5342 68° East 408 470 16,600 -1,860 Descending Boston Center
10:37AM 41.7369 -71.4003 67° East 394 453 14,800 -1,920 Descending Boston Center
10:38AM 41.7950 -71.2669 60° Northeast 389 448 12,800 -1,740 Descending Boston Center
10:39AM 41.8461 -71.1464 60° Northeast 374 430 11,200 -960 Descending Boston Center
10:40AM 41.8833 -71.0500 63° Northeast 354 407 11,000 -120 Descending KA90
10:41AM 41.9333 -70.9333 60° Northeast 346 398 11,000  Level KA90
10:42AM 41.9833 -70.8167 60° Northeast 348 400 11,000 -540 Level KA90
10:43AM 42.0500 -70.7167 48° Northeast 334 384 10,000 -1,440 Descending KA90
10:44AM 42.1000 -70.6333 51° Northeast 320 368 8,200 -1,560 Descending KA90
10:45AM 42.1833 -70.6000 17° North 284 327 6,900 -1,200 Descending KA90
10:46AM 42.2667 -70.5667 16° North 285 328 5,900 -960 Descending KA90
10:47AM 42.3333 -70.5667 360° North 259 298 5,000 -600 Descending KA90
10:48AM 42.3833 -70.6333 315° West 254 292 4,700 -420 Descending KA90
10:49AM 42.4333 -70.7000 315° West 211 243 4,200 -900 Descending KA90
10:50AM 42.4667 -70.7500 312° West 216 249 3,100 -660 Descending KA90
10:51AM 42.5000 -70.8167 304° West 212 244 3,000 -60 Descending KA90
10:52AM 42.5333 -70.8833 304° West 176 203 3,000 -240 Level KA90
10:53AM 42.5167 -70.9333 246° West 155 178 2,600 -540 Descending KA90
10:54AM 42.4667 -70.9500 194° South 151 174 2,000 -600 Descending KA90
10:55AM 42.4333 -70.9667 200° South 142 163 1,400 -660 Descending KA90
10:56AM 42.4000 -70.9833 200° South 118 136 700 -720 Descending KA90